createdAt,value
2018-03-24T00:00:03.524Z,0.875
2018-03-24T00:01:03.220Z,0.875
2018-03-24T00:02:04.113Z,0.812
2018-03-24T00:03:03.355Z,0.75
2018-03-24T00:04:03.947Z,0.75
2018-03-24T00:05:04.728Z,0.75
2018-03-24T00:06:03.322Z,0.687
2018-03-24T00:07:03.884Z,0.625
2018-03-24T00:08:03.504Z,0.625
2018-03-24T00:09:04.371Z,0.562
2018-03-24T00:10:04.109Z,0.5
2018-03-24T00:11:03.648Z,0.5
2018-03-24T00:12:03.234Z,0.5
2018-03-24T00:13:03.933Z,0.437
2018-03-24T00:14:03.442Z,0.437
2018-03-24T00:15:03.746Z,0.375
2018-03-24T00:16:03.371Z,0.312
2018-03-24T00:17:04.243Z,0.25
2018-03-24T00:18:03.751Z,0.187
2018-03-24T00:19:03.454Z,0.187
2018-03-24T00:20:03.207Z,0.187
2018-03-24T00:21:03.943Z,0.125
2018-03-24T00:22:03.630Z,0.125
2018-03-24T00:23:03.319Z,0.062
2018-03-24T00:24:04.006Z,0.062
2018-03-24T00:25:03.574Z,0.062
2018-03-24T00:26:03.358Z,0.062
2018-03-24T00:27:03.957Z,0.125
2018-03-24T00:28:03.649Z,0.062
2018-03-24T00:29:03.358Z,0.062
2018-03-24T00:30:05.298Z,0.062
2018-03-24T00:31:04.012Z,0.062
2018-03-24T00:32:03.593Z,0.062
2018-03-24T00:33:03.233Z,0.125
2018-03-24T00:34:03.893Z,0.125
2018-03-24T00:35:03.530Z,0.125
2018-03-24T00:36:03.234Z,0.125
2018-03-24T00:37:03.803Z,0.125
2018-03-24T00:38:03.772Z,0.125
2018-03-24T00:39:03.778Z,0.125
2018-03-24T00:40:03.984Z,0.125
2018-03-24T00:41:04.092Z,0.187
2018-03-24T00:42:03.824Z,0.125
2018-03-24T00:43:03.385Z,0.187
2018-03-24T00:44:04.036Z,0.125
2018-03-24T00:45:03.702Z,0.125
2018-03-24T00:46:03.359Z,0.062
2018-03-24T00:47:03.370Z,0.062
2018-03-24T00:48:03.870Z,0.125
2018-03-24T00:49:03.500Z,0.125
2018-03-24T00:50:03.146Z,0.062
2018-03-24T00:51:04.089Z,0.062
2018-03-24T00:52:03.660Z,0.062
2018-03-24T00:53:03.346Z,0
2018-03-24T00:54:03.922Z,0.062
2018-03-24T00:55:03.535Z,0
2018-03-24T00:56:03.199Z,0
2018-03-24T00:57:03.714Z,0
2018-03-24T00:58:03.501Z,0
2018-03-24T00:59:03.278Z,0
2018-03-24T01:00:04.519Z,0
2018-03-24T01:01:04.085Z,-0.062
2018-03-24T01:02:03.828Z,-0.062
2018-03-24T01:03:03.501Z,-0.062
2018-03-24T01:04:03.331Z,-0.062
2018-03-24T01:05:04.133Z,-0.062
2018-03-24T01:06:03.987Z,-0.062
2018-03-24T01:07:03.500Z,-0.062
2018-03-24T01:08:03.620Z,0
2018-03-24T01:09:03.466Z,0
2018-03-24T01:10:04.120Z,0.062
2018-03-24T01:11:03.725Z,0.187
2018-03-24T01:12:03.369Z,0.187
2018-03-24T01:13:04.097Z,0.125
2018-03-24T01:14:03.734Z,0.187
2018-03-24T01:15:03.470Z,0.187
2018-03-24T01:16:04.092Z,0.187
2018-03-24T01:17:03.967Z,0.187
2018-03-24T01:18:03.450Z,0.187
2018-03-24T01:19:03.312Z,0.187
2018-03-24T01:20:04.197Z,0.187
2018-03-24T01:21:03.785Z,0.187
2018-03-24T01:22:03.540Z,0.125
2018-03-24T01:23:03.255Z,0.125
2018-03-24T01:24:03.852Z,0.125
2018-03-24T01:25:03.602Z,0.125
2018-03-24T01:26:03.290Z,0.125
2018-03-24T01:27:03.908Z,0.125
2018-03-24T01:28:03.538Z,0.062
2018-03-24T01:29:03.253Z,0.062
2018-03-24T01:30:04.211Z,0.125
2018-03-24T01:31:04.048Z,0.125
2018-03-24T01:32:03.645Z,0.125
2018-03-24T01:33:03.267Z,0.125
2018-03-24T01:34:03.868Z,0.125
2018-03-24T01:35:03.589Z,0.125
2018-03-24T01:36:03.544Z,0.062
2018-03-24T01:37:03.157Z,0.062
2018-03-24T01:38:04.509Z,0.062
2018-03-24T01:39:04.187Z,0.062
2018-03-24T01:40:03.748Z,0
2018-03-24T01:41:03.532Z,0
2018-03-24T01:42:03.356Z,0
2018-03-24T01:43:03.836Z,0
2018-03-24T01:44:03.506Z,0
2018-03-24T01:45:04.231Z,0.062
2018-03-24T01:46:03.715Z,0
2018-03-24T01:47:03.333Z,-0.062
2018-03-24T01:48:03.922Z,-0.062
2018-03-24T01:49:03.671Z,-0.062
2018-03-24T01:50:03.587Z,-0.062
2018-03-24T01:51:03.134Z,-0.187
2018-03-24T01:52:03.602Z,-0.125
2018-03-24T01:53:03.239Z,-0.187
2018-03-24T01:54:03.934Z,-0.187
2018-03-24T01:55:03.622Z,-0.312
2018-03-24T01:56:03.302Z,-0.312
2018-03-24T01:57:03.952Z,-0.437
2018-03-24T01:58:03.647Z,-0.5
2018-03-24T01:59:03.254Z,-0.562
2018-03-24T02:00:03.986Z,-0.687
2018-03-24T02:01:04.057Z,-0.75
2018-03-24T02:02:03.573Z,-0.75
2018-03-24T02:03:04.178Z,-0.875
2018-03-24T02:04:03.799Z,-0.937
2018-03-24T02:05:04.013Z,-0.937
2018-03-24T02:06:03.546Z,-1
2018-03-24T02:07:03.275Z,-0.875
2018-03-24T02:08:03.789Z,-1
2018-03-24T02:09:04.103Z,-1
2018-03-24T02:10:03.844Z,-1
2018-03-24T02:11:04.540Z,-1.062
2018-03-24T02:12:04.079Z,-1.125
2018-03-24T02:13:03.641Z,-1.125
2018-03-24T02:14:03.329Z,-1.187
2018-03-24T02:15:03.940Z,-1.25
2018-03-24T02:16:03.695Z,-1.25
2018-03-24T02:17:03.706Z,-1.375
2018-03-24T02:18:03.590Z,-1.375
2018-03-24T02:19:03.352Z,-1.437
2018-03-24T02:20:03.883Z,-1.437
2018-03-24T02:21:08.583Z,-1.375
2018-03-24T02:22:03.356Z,-1.437
2018-03-24T02:23:03.835Z,-1.5
2018-03-24T02:24:03.424Z,-1.562
2018-03-24T02:25:03.355Z,-1.562
2018-03-24T02:26:03.936Z,-0.75
2018-03-24T02:27:03.630Z,-0.937
2018-03-24T02:28:03.246Z,-1
2018-03-24T02:29:03.783Z,-1.062
2018-03-24T02:30:03.680Z,-1.062
2018-03-24T02:31:03.669Z,-1.062
2018-03-24T02:32:03.320Z,-1.125
2018-03-24T02:33:03.905Z,-1.125
2018-03-24T02:34:03.305Z,-1.187
2018-03-24T02:35:03.945Z,-1.187
2018-03-24T02:36:03.661Z,-1.187
2018-03-24T02:37:03.231Z,-1.187
2018-03-24T02:38:03.851Z,-1.187
2018-03-24T02:39:04.736Z,-1.25
2018-03-24T02:40:03.389Z,-1.25
2018-03-24T02:41:03.340Z,-1.25
2018-03-24T02:42:03.948Z,-1.25
2018-03-24T02:43:03.635Z,-1.312
2018-03-24T02:44:03.446Z,-1.25
2018-03-24T02:45:04.342Z,-1.25
2018-03-24T02:46:03.895Z,-1.25
2018-03-24T02:47:03.528Z,-1.312
2018-03-24T02:48:03.207Z,-1.375
2018-03-24T02:49:03.694Z,-1.375
2018-03-24T02:50:03.405Z,-1.375
2018-03-24T02:51:03.884Z,-1.437
2018-03-24T02:52:03.325Z,-1.437
2018-03-24T02:53:04.330Z,-1.437
2018-03-24T02:54:03.650Z,-1.437
2018-03-24T02:55:03.254Z,-1.437
2018-03-24T02:56:03.584Z,-1.437
2018-03-24T02:57:03.355Z,-1.437
2018-03-24T02:58:03.908Z,-1.437
2018-03-24T02:59:03.256Z,-1.5
2018-03-24T03:00:04.230Z,-1.437
2018-03-24T03:01:03.702Z,-1.437
2018-03-24T03:02:03.448Z,-1.437
2018-03-24T03:03:03.765Z,-1.437
2018-03-24T03:04:03.156Z,-1.375
2018-03-24T03:05:03.884Z,-1.375
2018-03-24T03:06:03.256Z,-1.375
2018-03-24T03:07:03.724Z,-1.375
2018-03-24T03:08:03.371Z,-1.312
2018-03-24T03:09:04.031Z,-1.312
2018-03-24T03:10:03.562Z,-1.312
2018-03-24T03:11:03.348Z,-1.25
2018-03-24T03:12:03.793Z,-1.25
2018-03-24T03:13:03.298Z,-1.25
2018-03-24T03:14:03.690Z,-1.187
2018-03-24T03:15:03.524Z,-1.187
2018-03-24T03:16:03.092Z,-1.187
2018-03-24T03:17:03.731Z,-1.187
2018-03-24T03:18:03.379Z,-1.25
2018-03-24T03:19:04.044Z,-1.25
2018-03-24T03:20:03.719Z,-1.25
2018-03-24T03:21:03.013Z,-1.25
2018-03-24T03:22:03.590Z,-1.25
2018-03-24T03:23:04.004Z,-1.25
2018-03-24T03:24:03.377Z,-1.312
2018-03-24T03:25:03.928Z,-1.312
2018-03-24T03:26:03.574Z,-1.312
2018-03-24T03:27:04.037Z,-1.312
2018-03-24T03:28:03.628Z,-1.25
2018-03-24T03:29:03.173Z,-1.25
2018-03-24T03:30:03.738Z,-1.25
2018-03-24T03:31:03.740Z,-1.25
2018-03-24T03:32:03.192Z,-1.25
2018-03-24T03:33:03.604Z,-1.187
2018-03-24T03:34:03.336Z,-1.187
2018-03-24T03:35:04.970Z,-1.25
2018-03-24T03:36:03.553Z,-1.312
2018-03-24T03:37:03.730Z,-1.312
2018-03-24T03:38:03.160Z,-1.312
2018-03-24T03:39:03.769Z,-1.312
2018-03-24T03:40:03.284Z,-1.312
2018-03-24T03:41:03.672Z,-1.312
2018-03-24T03:42:03.109Z,-1.312
2018-03-24T03:43:03.565Z,-1.312
2018-03-24T03:44:03.107Z,-1.25
2018-03-24T03:45:03.862Z,-1.25
2018-03-24T03:46:03.932Z,-1.25
2018-03-24T03:47:03.360Z,-1.25
2018-03-24T03:48:03.905Z,-1.187
2018-03-24T03:49:03.479Z,-1.062
2018-03-24T03:50:03.339Z,-1
2018-03-24T03:51:03.940Z,-0.937
2018-03-24T03:52:03.578Z,-0.937
2018-03-24T03:53:03.227Z,-0.937
2018-03-24T03:54:03.722Z,-0.937
2018-03-24T03:55:03.616Z,-0.937
2018-03-24T03:56:03.107Z,-1
2018-03-24T03:57:03.525Z,-1.062
2018-03-24T03:58:03.319Z,-1.062
2018-03-24T03:59:03.798Z,-1.125
2018-03-24T04:00:08.347Z,-1.125
2018-03-24T04:01:04.054Z,-1.125
2018-03-24T04:02:03.475Z,-1.187
2018-03-24T04:03:04.445Z,-1.125
2018-03-24T04:04:03.890Z,-1.187
2018-03-24T04:05:03.792Z,-1.125
2018-03-24T04:06:03.302Z,-1.125
2018-03-24T04:07:03.760Z,-1.125
2018-03-24T04:08:03.349Z,-1.125
2018-03-24T04:09:03.787Z,-1.125
2018-03-24T04:10:03.431Z,-1.125
2018-03-24T04:11:04.817Z,-1.062
2018-03-24T04:12:03.364Z,-1.125
2018-03-24T04:13:03.814Z,-1.125
2018-03-24T04:14:03.404Z,-1.125
2018-03-24T04:15:03.903Z,-1.125
2018-03-24T04:16:03.368Z,-1.125
2018-03-24T04:17:03.964Z,-1.125
2018-03-24T04:18:03.464Z,-1.125
2018-03-24T04:19:03.046Z,-1.062
2018-03-24T04:20:04.583Z,-1.062
2018-03-24T04:21:03.287Z,-1.062
2018-03-24T04:22:03.758Z,-1
2018-03-24T04:23:03.311Z,-1
2018-03-24T04:24:03.861Z,-0.937
2018-03-24T04:25:03.436Z,-1
2018-03-24T04:26:03.979Z,-0.937
2018-03-24T04:27:03.411Z,-1
2018-03-24T04:28:03.971Z,-1
2018-03-24T04:29:03.439Z,-1.062
2018-03-24T04:30:04.006Z,-1.062
2018-03-24T04:31:03.877Z,-1.062
2018-03-24T04:32:03.352Z,-1.062
2018-03-24T04:33:04.732Z,-1.062
2018-03-24T04:34:03.222Z,-1.062
2018-03-24T04:35:03.887Z,-1.062
2018-03-24T04:36:03.371Z,-1.062
2018-03-24T04:37:03.774Z,-1.125
2018-03-24T04:38:03.161Z,-1.125
2018-03-24T04:39:03.907Z,-1.125
2018-03-24T04:40:03.489Z,-1.125
2018-03-24T04:41:03.089Z,-1.125
2018-03-24T04:42:03.578Z,-1.125
2018-03-24T04:43:03.178Z,-1.125
2018-03-24T04:44:03.968Z,-1.125
2018-03-24T04:45:03.731Z,-1.125
2018-03-24T04:46:03.480Z,-1.062
2018-03-24T04:47:04.017Z,-1.062
2018-03-24T04:48:03.563Z,-1.125
2018-03-24T04:49:03.091Z,-1.125
2018-03-24T04:50:03.534Z,-1.125
2018-03-24T04:51:03.092Z,-1.125
2018-03-24T04:52:03.838Z,-1.062
2018-03-24T04:53:03.496Z,-1.062
2018-03-24T04:54:03.454Z,-1.062
2018-03-24T04:55:03.849Z,-1.062
2018-03-24T04:56:03.351Z,-1.062
2018-03-24T04:57:04.057Z,-1
2018-03-24T04:58:03.501Z,-1
2018-03-24T04:59:03.937Z,-1
2018-03-24T05:00:03.477Z,-0.937
2018-03-24T05:01:03.516Z,-0.937
2018-03-24T05:02:03.184Z,-0.937
2018-03-24T05:03:03.819Z,-0.875
2018-03-24T05:04:03.323Z,-0.875
2018-03-24T05:05:03.842Z,-0.875
2018-03-24T05:06:03.322Z,-0.875
2018-03-24T05:07:03.801Z,-0.875
2018-03-24T05:08:03.304Z,-0.812
2018-03-24T05:09:03.859Z,-0.812
2018-03-24T05:10:03.587Z,-0.75
2018-03-24T05:11:03.025Z,-0.75
2018-03-24T05:12:03.461Z,-0.687
2018-03-24T05:13:04.105Z,-0.687
2018-03-24T05:14:03.773Z,-0.687
2018-03-24T05:15:03.499Z,-0.625
2018-03-24T05:16:03.495Z,-0.687
2018-03-24T05:17:04.172Z,-0.687
2018-03-24T05:18:03.947Z,-0.687
2018-03-24T05:19:03.488Z,-0.625
2018-03-24T05:20:03.100Z,-0.625
2018-03-24T05:21:03.587Z,-0.562
2018-03-24T05:22:03.301Z,-0.562
2018-03-24T05:23:03.596Z,-0.562
2018-03-24T05:24:03.181Z,-0.562
2018-03-24T05:25:05.033Z,-0.562
2018-03-24T05:26:03.872Z,-0.5
2018-03-24T05:27:03.350Z,-0.5
2018-03-24T05:28:04.786Z,-0.5
2018-03-24T05:29:03.194Z,-0.437
2018-03-24T05:30:03.826Z,-0.437
2018-03-24T05:31:03.641Z,-0.375
2018-03-24T05:32:03.222Z,-0.375
2018-03-24T05:33:03.618Z,-0.375
2018-03-24T05:34:03.703Z,-0.312
2018-03-24T05:35:03.329Z,-0.312
2018-03-24T05:36:03.811Z,-0.312
2018-03-24T05:37:03.449Z,-0.312
2018-03-24T05:38:03.730Z,-0.25
2018-03-24T05:39:03.360Z,-0.25
2018-03-24T05:40:04.782Z,-0.25
2018-03-24T05:41:03.298Z,-0.25
2018-03-24T05:42:03.942Z,-0.187
2018-03-24T05:43:03.489Z,-0.187
2018-03-24T05:44:03.194Z,-0.187
2018-03-24T05:45:03.677Z,-0.187
2018-03-24T05:46:03.323Z,-0.187
2018-03-24T05:47:03.759Z,-0.187
2018-03-24T05:48:03.197Z,-0.187
2018-03-24T05:49:03.692Z,-0.125
2018-03-24T05:50:03.322Z,-0.125
2018-03-24T05:51:03.259Z,-0.125
2018-03-24T05:52:03.662Z,-0.125
2018-03-24T05:53:03.186Z,-0.125
2018-03-24T05:54:03.666Z,-0.125
2018-03-24T05:55:03.217Z,-0.062
2018-03-24T05:56:03.719Z,0.062
2018-03-24T05:57:03.594Z,0.062
2018-03-24T05:58:04.089Z,0.125
2018-03-24T05:59:03.435Z,0.187
2018-03-24T06:00:05.125Z,0.187
2018-03-24T06:01:03.507Z,0.25
2018-03-24T06:02:04.002Z,0.25
2018-03-24T06:03:03.673Z,0.312
2018-03-24T06:04:03.471Z,0.312
2018-03-24T06:05:04.047Z,0.375
2018-03-24T06:06:03.509Z,0.437
2018-03-24T06:07:03.949Z,0.437
2018-03-24T06:08:04.487Z,0.5
2018-03-24T06:09:03.333Z,0.562
2018-03-24T06:10:03.712Z,0.562
2018-03-24T06:11:03.448Z,0.625
2018-03-24T06:12:03.958Z,0.625
2018-03-24T06:13:03.432Z,0.625
2018-03-24T06:14:03.810Z,0.625
2018-03-24T06:15:03.531Z,0.687
2018-03-24T06:16:03.834Z,0.687
2018-03-24T06:17:03.412Z,0.75
2018-03-24T06:18:03.973Z,0.75
2018-03-24T06:19:03.396Z,0.75
2018-03-24T06:20:04.156Z,0.812
2018-03-24T06:21:03.570Z,0.875
2018-03-24T06:22:03.209Z,0.875
2018-03-24T06:23:03.576Z,0.937
2018-03-24T06:24:03.922Z,1
2018-03-24T06:25:03.443Z,1.062
2018-03-24T06:26:04.037Z,1.062
2018-03-24T06:27:03.600Z,1.125
2018-03-24T06:28:03.029Z,1.125
2018-03-24T06:29:03.482Z,1.187
2018-03-24T06:30:04.319Z,1.187
2018-03-24T06:31:03.848Z,1.187
2018-03-24T06:32:03.322Z,1.25
2018-03-24T06:33:03.883Z,1.25
2018-03-24T06:34:03.557Z,1.312
2018-03-24T06:35:04.040Z,1.312
2018-03-24T06:36:03.585Z,1.312
2018-03-24T06:37:03.256Z,1.312
2018-03-24T06:38:03.784Z,1.375
2018-03-24T06:39:03.314Z,1.437
2018-03-24T06:40:04.069Z,1.437
2018-03-24T06:41:03.405Z,1.5
2018-03-24T06:42:03.874Z,1.562
2018-03-24T06:43:03.412Z,1.625
2018-03-24T06:44:03.927Z,1.687
2018-03-24T06:45:03.622Z,1.812
2018-03-24T06:46:03.946Z,1.75
2018-03-24T06:47:03.485Z,1.812
2018-03-24T06:48:03.053Z,1.937
2018-03-24T06:49:03.538Z,1.937
2018-03-24T06:50:03.239Z,2
2018-03-24T06:51:03.201Z,2.062
2018-03-24T06:52:03.655Z,2.125
2018-03-24T06:53:03.400Z,2.25
2018-03-24T06:54:04.121Z,2.25
2018-03-24T06:55:03.620Z,2.312
2018-03-24T06:56:03.161Z,2.312
2018-03-24T06:57:03.590Z,2.312
2018-03-24T06:58:03.223Z,2.437
2018-03-24T06:59:03.675Z,2.5
2018-03-24T07:00:03.385Z,2.5
2018-03-24T07:01:03.125Z,2.625
2018-03-24T07:02:03.918Z,2.687
2018-03-24T07:03:03.465Z,2.75
2018-03-24T07:04:03.919Z,2.812
2018-03-24T07:05:03.667Z,2.875
2018-03-24T07:06:03.185Z,2.812
2018-03-24T07:07:03.621Z,2.812
2018-03-24T07:08:03.176Z,2.875
2018-03-24T07:09:03.522Z,2.875
2018-03-24T07:10:03.390Z,2.937
2018-03-24T07:11:03.302Z,3
2018-03-24T07:12:03.715Z,3
2018-03-24T07:13:03.269Z,3.125
2018-03-24T07:14:03.722Z,3.125
2018-03-24T07:15:03.569Z,3.25
2018-03-24T07:16:03.029Z,3.312
2018-03-24T07:17:03.748Z,3.375
2018-03-24T07:18:03.640Z,3.437
2018-03-24T07:19:03.180Z,3.562
2018-03-24T07:20:03.921Z,3.625
2018-03-24T07:21:03.241Z,3.562
2018-03-24T07:22:03.703Z,3.562
2018-03-24T07:23:03.183Z,3.625
2018-03-24T07:24:03.636Z,3.812
2018-03-24T07:25:03.161Z,3.875
2018-03-24T07:26:03.619Z,3.937
2018-03-24T07:27:03.156Z,4.062
2018-03-24T07:28:03.679Z,4.062
2018-03-24T07:29:03.484Z,4.062
2018-03-24T07:30:04.216Z,4.187
2018-03-24T07:31:03.748Z,4.375
2018-03-24T07:32:03.215Z,4.375
2018-03-24T07:33:03.936Z,4.437
2018-03-24T07:34:03.316Z,4.437
2018-03-24T07:35:03.822Z,4.562
2018-03-24T07:36:03.472Z,4.625
2018-03-24T07:37:03.503Z,4.687
2018-03-24T07:38:03.914Z,4.75
2018-03-24T07:39:03.642Z,4.75
2018-03-24T07:40:04.363Z,4.812
2018-03-24T07:41:03.321Z,4.937
2018-03-24T07:42:03.759Z,5
2018-03-24T07:43:03.212Z,5
2018-03-24T07:44:03.681Z,5
2018-03-24T07:45:03.492Z,5.062
2018-03-24T07:46:03.939Z,5.062
2018-03-24T07:47:03.611Z,5.25
2018-03-24T07:48:03.081Z,5.125
2018-03-24T07:49:03.671Z,5.125
2018-03-24T07:50:03.192Z,5.187
2018-03-24T07:51:03.668Z,5.25
2018-03-24T07:52:03.076Z,5.312
2018-03-24T07:53:03.459Z,5.437
2018-03-24T07:54:04.003Z,5.687
2018-03-24T07:55:04.535Z,5.875
2018-03-24T07:56:03.860Z,5.875
2018-03-24T07:57:03.421Z,6
2018-03-24T07:58:03.807Z,6
2018-03-24T07:59:03.351Z,6.125
2018-03-24T08:00:03.925Z,6.187
2018-03-24T08:01:04.634Z,6.25
2018-03-24T08:02:03.183Z,6.375
2018-03-24T08:03:03.619Z,6.687
2018-03-24T08:04:03.465Z,6.812
2018-03-24T08:05:03.991Z,6.687
2018-03-24T08:06:03.438Z,6.812
2018-03-24T08:07:03.776Z,6.937
2018-03-24T08:08:03.380Z,7.125
2018-03-24T08:09:04.635Z,7.25
2018-03-24T08:10:04.092Z,7.437
2018-03-24T08:11:03.607Z,7.437
2018-03-24T08:12:03.155Z,7.25
2018-03-24T08:13:03.598Z,7.187
2018-03-24T08:14:03.122Z,7.5
2018-03-24T08:15:03.963Z,7.437
2018-03-24T08:16:03.320Z,7.375
2018-03-24T08:17:03.971Z,7.312
2018-03-24T08:18:03.452Z,7.5
2018-03-24T08:19:03.916Z,7.75
2018-03-24T08:20:03.522Z,7.687
2018-03-24T08:21:03.413Z,7.75
2018-03-24T08:22:03.980Z,7.937
2018-03-24T08:23:03.453Z,8.062
2018-03-24T08:24:03.966Z,8.062
2018-03-24T08:25:03.395Z,8.187
2018-03-24T08:26:05.934Z,8.437
2018-03-24T08:27:03.568Z,8.562
2018-03-24T08:28:04.021Z,8.437
2018-03-24T08:29:03.593Z,8.312
2018-03-24T08:30:03.411Z,8.062
2018-03-24T08:31:03.160Z,8.125
2018-03-24T08:32:03.642Z,8.062
2018-03-24T08:33:03.100Z,8
2018-03-24T08:34:03.843Z,8.187
2018-03-24T08:35:03.623Z,8.25
2018-03-24T08:36:03.936Z,8.312
2018-03-24T08:37:03.291Z,8.312
2018-03-24T08:38:03.620Z,8.375
2018-03-24T08:39:03.341Z,8.437
2018-03-24T08:40:03.755Z,8.375
2018-03-24T08:41:04.322Z,8.562
2018-03-24T08:42:03.882Z,8.812
2018-03-24T08:43:03.322Z,9.125
2018-03-24T08:44:03.842Z,9.375
2018-03-24T08:45:03.379Z,9.625
2018-03-24T08:46:03.733Z,9.562
2018-03-24T08:47:03.296Z,9.687
2018-03-24T08:48:03.782Z,9.625
2018-03-24T08:49:03.288Z,9.812
2018-03-24T08:50:03.782Z,9.75
2018-03-24T08:51:03.300Z,9.687
2018-03-24T08:52:03.780Z,9.75
2018-03-24T08:53:03.194Z,9.812
2018-03-24T08:54:03.685Z,9.937
2018-03-24T08:55:03.590Z,9.875
2018-03-24T08:56:03.137Z,10
2018-03-24T08:57:03.609Z,9.937
2018-03-24T08:58:03.276Z,9.812
2018-03-24T08:59:04.709Z,9.812
2018-03-24T09:00:03.442Z,9.75
2018-03-24T09:01:03.365Z,9.687
2018-03-24T09:02:03.343Z,9.812
2018-03-24T09:03:03.752Z,9.687
2018-03-24T09:04:03.248Z,9.812
2018-03-24T09:05:03.887Z,9.812
2018-03-24T09:06:03.207Z,9.937
2018-03-24T09:07:03.734Z,10.062
2018-03-24T09:08:03.191Z,10.125
2018-03-24T09:09:03.724Z,10.437
2018-03-24T09:10:03.470Z,10.562
2018-03-24T09:11:04.025Z,10.5
2018-03-24T09:12:03.622Z,10.687
2018-03-24T09:13:03.737Z,10.75
2018-03-24T09:14:03.204Z,10.937
2018-03-24T09:15:03.831Z,11.062
2018-03-24T09:16:03.210Z,11.062
2018-03-24T09:17:03.953Z,10.937
2018-03-24T09:18:03.523Z,11.125
2018-03-24T09:19:03.897Z,11.312
2018-03-24T09:20:03.354Z,11.187
2018-03-24T09:21:02.982Z,11.187
2018-03-24T09:22:03.522Z,11.187
2018-03-24T09:23:03.968Z,11.062
2018-03-24T09:24:03.427Z,11.062
2018-03-24T09:25:03.844Z,11.312
2018-03-24T09:26:03.458Z,11.312
2018-03-24T09:27:03.803Z,11.312
2018-03-24T09:28:03.649Z,11.187
2018-03-24T09:29:03.160Z,11.25
2018-03-24T09:30:03.653Z,11.562
2018-03-24T09:31:03.543Z,11.875
2018-03-24T09:32:04.004Z,11.812
2018-03-24T09:33:03.450Z,12.062
2018-03-24T09:34:03.878Z,12.125
2018-03-24T09:35:03.362Z,11.812
2018-03-24T09:36:03.935Z,11.25
2018-03-24T09:37:03.257Z,11.187
2018-03-24T09:38:03.758Z,11.75
2018-03-24T09:39:03.404Z,12.125
2018-03-24T09:40:03.950Z,12.187
2018-03-24T09:41:03.487Z,12.125
2018-03-24T09:42:03.858Z,12.312
2018-03-24T09:43:03.286Z,12.062
2018-03-24T09:44:04.277Z,12.062
2018-03-24T09:45:03.817Z,12.375
2018-03-24T09:46:03.241Z,12.187
2018-03-24T09:47:03.750Z,12.437
2018-03-24T09:48:03.255Z,12.375
2018-03-24T09:49:03.800Z,12.437
2018-03-24T09:50:03.432Z,12.562
2018-03-24T09:51:03.800Z,12.875
2018-03-24T09:52:03.682Z,12.875
2018-03-24T09:53:03.279Z,12.937
2018-03-24T09:54:03.761Z,12.875
2018-03-24T09:55:03.482Z,12.812
2018-03-24T09:56:03.902Z,12.75
2018-03-24T09:57:03.306Z,12.75
2018-03-24T09:58:03.854Z,12.625
2018-03-24T09:59:03.257Z,12.437
2018-03-24T10:00:04.095Z,12.625
2018-03-24T10:01:03.579Z,12.937
2018-03-24T10:02:04.058Z,13
2018-03-24T10:03:03.532Z,12.625
2018-03-24T10:04:04.020Z,12.312
2018-03-24T10:05:03.853Z,12.125
2018-03-24T10:06:03.328Z,11.875
2018-03-24T10:07:03.871Z,11.75
2018-03-24T10:08:03.413Z,11.5
2018-03-24T10:09:04.933Z,11.437
2018-03-24T10:10:03.710Z,11.437
2018-03-24T10:11:03.852Z,11.5
2018-03-24T10:12:03.282Z,11.875
2018-03-24T10:13:03.774Z,12.187
2018-03-24T10:14:03.272Z,12.125
2018-03-24T10:15:03.786Z,12.062
2018-03-24T10:16:03.337Z,12.437
2018-03-24T10:17:04.130Z,12.25
2018-03-24T10:18:03.663Z,12.187
2018-03-24T10:19:03.302Z,12.5
2018-03-24T10:20:03.891Z,12.625
2018-03-24T10:21:03.813Z,12.75
2018-03-24T10:22:03.308Z,12.875
2018-03-24T10:23:03.903Z,12.625
2018-03-24T10:24:03.352Z,12.687
2018-03-24T10:25:03.946Z,12.5
2018-03-24T10:26:03.414Z,12.687
2018-03-24T10:27:03.834Z,12.687
2018-03-24T10:28:04.370Z,12.562
2018-03-24T10:29:03.819Z,12.437
2018-03-24T10:30:03.492Z,12.625
2018-03-24T10:31:04.044Z,12.562
2018-03-24T10:32:03.656Z,12.625
2018-03-24T10:33:03.134Z,12.625
2018-03-24T10:34:03.754Z,12.687
2018-03-24T10:35:03.250Z,12.937
2018-03-24T10:36:03.685Z,12.75
2018-03-24T10:37:04.146Z,12.625
2018-03-24T10:38:03.453Z,12.25
2018-03-24T10:39:03.672Z,12.187
2018-03-24T10:40:03.188Z,12.125
2018-03-24T10:41:03.091Z,11.812
2018-03-24T10:42:03.826Z,11.625
2018-03-24T10:43:03.310Z,11.375
2018-03-24T10:44:03.792Z,11.687
2018-03-24T10:45:03.414Z,12.062
2018-03-24T10:46:03.864Z,12.25
2018-03-24T10:47:03.411Z,12.437
2018-03-24T10:48:04.330Z,12.437
2018-03-24T10:49:03.707Z,12.375
2018-03-24T10:50:03.387Z,12.375
2018-03-24T10:51:03.098Z,12.125
2018-03-24T10:52:03.651Z,12.062
2018-03-24T10:53:03.275Z,12.125
2018-03-24T10:54:03.712Z,12
2018-03-24T10:55:03.345Z,12.187
2018-03-24T10:56:03.807Z,12.187
2018-03-24T10:57:03.672Z,12.187
2018-03-24T10:58:03.188Z,12.062
2018-03-24T10:59:03.672Z,11.875
2018-03-24T11:00:03.402Z,11.812
2018-03-24T11:01:03.544Z,12
2018-03-24T11:02:04.022Z,11.937
2018-03-24T11:03:03.985Z,12.062
2018-03-24T11:04:03.515Z,12.125
2018-03-24T11:05:04.067Z,11.875
2018-03-24T11:06:03.521Z,11.562
2018-03-24T11:07:03.181Z,11.125
2018-03-24T11:08:03.517Z,10.937
2018-03-24T11:09:03.958Z,11.062
2018-03-24T11:10:03.554Z,11.312
2018-03-24T11:11:03.090Z,11.375
2018-03-24T11:12:03.586Z,11.25
2018-03-24T11:13:04.014Z,11.312
2018-03-24T11:14:03.521Z,11.375
2018-03-24T11:15:04.055Z,11.687
2018-03-24T11:16:03.669Z,11.875
2018-03-24T11:17:03.387Z,11.875
2018-03-24T11:18:04.205Z,12
2018-03-24T11:19:03.503Z,11.75
2018-03-24T11:20:04.058Z,11.75
2018-03-24T11:21:03.528Z,12
2018-03-24T11:22:03.101Z,11.937
2018-03-24T11:23:03.510Z,12.125
2018-03-24T11:24:03.931Z,12.187
2018-03-24T11:25:03.273Z,12.312
2018-03-24T11:26:03.819Z,12.625
2018-03-24T11:27:03.358Z,12.937
2018-03-24T11:28:03.845Z,12.875
2018-03-24T11:29:03.175Z,12.875
2018-03-24T11:30:04.257Z,12.625
2018-03-24T11:31:03.639Z,12.75
2018-03-24T11:32:03.387Z,12.562
2018-03-24T11:33:04.024Z,12.25
2018-03-24T11:34:03.445Z,12.187
2018-03-24T11:35:03.951Z,12.187
2018-03-24T11:36:03.536Z,12.125
2018-03-24T11:37:04.080Z,12.437
2018-03-24T11:38:03.660Z,12.562
2018-03-24T11:39:03.441Z,12.625
2018-03-24T11:40:03.821Z,12.75
2018-03-24T11:41:03.455Z,12.875
2018-03-24T11:42:03.108Z,13
2018-03-24T11:43:03.852Z,12.812
2018-03-24T11:44:03.580Z,12.187
2018-03-24T11:45:03.334Z,12.187
2018-03-24T11:46:03.911Z,11.875
2018-03-24T11:47:03.134Z,11.937
2018-03-24T11:48:03.604Z,11.812
2018-03-24T11:49:03.034Z,11.812
2018-03-24T11:50:03.545Z,11.75
2018-03-24T11:51:03.100Z,11.875
2018-03-24T11:52:03.648Z,11.937
2018-03-24T11:53:03.346Z,12.187
2018-03-24T11:54:03.734Z,12.187
2018-03-24T11:55:03.262Z,12.312
2018-03-24T11:56:03.206Z,12.5
2018-03-24T11:57:03.587Z,12.5
2018-03-24T11:58:03.208Z,12.125
2018-03-24T11:59:03.836Z,12.187
2018-03-24T12:00:03.689Z,12.187
2018-03-24T12:01:03.179Z,12.25
2018-03-24T12:02:03.655Z,12.437
2018-03-24T12:03:03.352Z,12.5
2018-03-24T12:04:03.605Z,12.75
2018-03-24T12:05:03.299Z,12.562
2018-03-24T12:06:03.604Z,12.437
2018-03-24T12:07:04.055Z,12.187
2018-03-24T12:08:03.736Z,11.937
2018-03-24T12:09:03.374Z,11.937
2018-03-24T12:10:03.859Z,12.062
2018-03-24T12:11:03.595Z,12.125
2018-03-24T12:12:03.997Z,12.187
2018-03-24T12:13:03.540Z,12.375
2018-03-24T12:14:03.948Z,12.5
2018-03-24T12:15:03.820Z,12.437
2018-03-24T12:16:03.215Z,12.312
2018-03-24T12:17:03.927Z,12.437
2018-03-24T12:18:03.405Z,12.375
2018-03-24T12:19:03.827Z,12.375
2018-03-24T12:20:03.540Z,12.5
2018-03-24T12:21:04.056Z,12.625
2018-03-24T12:22:03.517Z,12.625
2018-03-24T12:23:03.184Z,12.875
2018-03-24T12:24:03.652Z,12.875
2018-03-24T12:25:03.365Z,13
2018-03-24T12:26:03.920Z,12.937
2018-03-24T12:27:03.461Z,13
2018-03-24T12:28:04.011Z,13.125
2018-03-24T12:29:03.463Z,12.937
2018-03-24T12:30:04.025Z,12.5
2018-03-24T12:31:03.856Z,12.5
2018-03-24T12:32:03.350Z,12.5
2018-03-24T12:33:03.748Z,12.187
2018-03-24T12:34:03.180Z,12.125
2018-03-24T12:35:03.728Z,12.375
2018-03-24T12:36:03.388Z,12.562
2018-03-24T12:37:03.870Z,12.5
2018-03-24T12:38:03.441Z,12.437
2018-03-24T12:39:03.946Z,12.437
2018-03-24T12:40:03.507Z,12.5
2018-03-24T12:41:03.871Z,12.5
2018-03-24T12:42:03.305Z,12.312
2018-03-24T12:43:03.808Z,11.812
2018-03-24T12:44:03.530Z,12.125
2018-03-24T12:45:04.069Z,12.125
2018-03-24T12:46:03.469Z,11.937
2018-03-24T12:47:03.905Z,12
2018-03-24T12:48:03.517Z,12.125